AirNav   TITAN Aviation Fuels
 
 627 users online  

VA99 Federhart-Ophelia Airport
Reedville, Virginia, USA

GOING TO REEDVILLE?


FAA INFORMATION EFFECTIVE 06 OCTOBER 2022

Location

FAA Identifier: VA99
Lat/Long: 37-54-19.3500N 076-17-26.1500W
37-54.322500N 076-17.435833W
37.9053750,-76.2905972
(estimated)
Elevation: 13 ft. / 4 m (estimated)
Variation: 10W (1985)
From city: 4 miles N of REEDVILLE, VA
Time zone: UTC -4 (UTC -5 during Standard Time)
Zip code: 22473

Airport Operations

Airport use: Private use. Permission required prior to landing
Activation date: 02/1972
Control tower: no
ARTCC: WASHINGTON CENTER
FSS: LEESBURG FLIGHT SERVICE STATION
Attendance: UNATNDD
Wind indicator: yes
Segmented circle: no

Airport Communications

WX AWOS-3 at TGI (15 nm E): 119.8 (757-891-2246)
WX AWOS-3 at W75 (20 nm S): 118.45 (804-758-8592)

Nearby radio navigation aids

VOR radial/distance  VOR name  Freq  Var
PXTr177/23.5PATUXENT VORTAC117.6010W
HCMr043/33.9HARCUM VORTAC108.8007W
CCVr347/36.2CAPE CHARLES VORTAC112.2010W

 
NDB name  Hdg/Dist  Freq  Var  ID
PATUXENT177/23.440010WNHK -. .... -.-

Airport Services

Airframe service: NONE
Powerplant service: NONE

Runway Information

Runway 1/19

Dimensions: 2200 x 60 ft. / 671 x 18 m
Surface: turf, in good condition
RUNWAY 1  RUNWAY 19
Latitude: 37-54.141667N37-54.503333N
Longitude: 076-17.451667W076-17.420000W
Elevation: 13.0 ft.13.0 ft.
Traffic pattern: leftleft
Obstructions: 60 ft. trees, 150 ft. from runway
AND PLINE.
70 ft. trees, 450 ft. from runway

Airport Ownership and Management from official FAA records

Ownership: Privately-owned
Owner: OPHELIA AIRSTRIP, LLC
C/O TRISTRAM HYDE, 278 TOLSTOY LANE
SEVERNA PARK, MD 21146-0247
Phone 240-278-0829
Manager: TRISTRAM HYDE
278 TOLSTOY LN, 375 AIRSTRIP LANE
SEVERNA PARK, MD 21146-0247
Phone 240-278-0829

Airport Operational Statistics

Aircraft based on the field: 8
Single engine airplanes: 8
    
Aircraft operations: 125/year *
100% local general aviation
* for 12-month period ending 31 December 2020

Additional Remarks

DESIGNATED VA99.
FOR CD CTC PATUXENT APCH AT 301-342-3740, WHEN PATUXENT APCH IS CLSD CTC POTOMAC APCH AT 866-640-4124.
VFR DAY USE ONLY.

Instrument Procedures

There are no published instrument procedures at VA99.

Some nearby airports with instrument procedures:

KTGI - Tangier Island Airport (15 nm E)
W75 - Hummel Field Airport (20 nm S)
W41 - Crisfield-Somerset County Airport (23 nm E)
KNHK - Patuxent River Naval Air Station (Trapnell Field) Airport (24 nm N)
2W6 - St Mary's County Regional Airport (27 nm NW)
 
Loc | Ops | Rwys | IFR | FBO | Links
Com | Nav | Svcs | Stats | Notes
Area around VA99 (Federhart-Ophelia Airport)
 
Road maps at: MapQuest Bing Google
 
Aerial photo
WARNING: Photo may not be current or correct
Aerial photo of VA99 (Federhart-Ophelia Airport)
Photo taken 27-Mar-2006

Do you have a better or more recent aerial photo of Federhart-Ophelia Airport that you would like to share? If so, please send us your photo.

 
Sectional chart

 
Airport distance calculator
Flying to Federhart-Ophelia Airport? Find the distance to fly.

From to VA99

Sunrise and sunset
Times for 07-Oct-2022
 Local
(UTC-4)
 Zulu
(UTC)
Morning civil twilight06:4110:41
Sunrise07:0711:07
Sunset18:3922:39
Evening civil twilight19:0523:05

Current date and time
Zulu (UTC)  07-Oct-2022 10:05:22
Local (UTC-4)  07-Oct-2022 06:05:22
 
METAR
KTGI 
15nm E 
070955Z AUTO 00000KT 7SM CLR 16/15 A3003 RMK AO1 T01620147
KNUI 
16nm NW 
070953Z AUTO 00000KT 1/2SM FG CLR 12/11 A3002 RMK AO2 SLP165 T01220106
KW75 
20nm S 
070955Z AUTO 00000KT 10SM CLR 12/11 A3003 RMK AO1 T01180113
KNHK 
22nm N 
070852Z AUTO 23004KT 10SM CLR 13/11 A3001 RMK AO2 SLP163 T01330111 55003 $
K2W6 
27nm NW 
070949Z AUTO 00000KT 10SM CLR 10/10 A3004 RMK AO1
KXSA 
29nm W 
070955Z AUTO 00000KT 10SM CLR 10/10 A3004 RMK AO2 T00960096
TAF
KNHK 
22nm N 
0708/0807 VRB06KT 9999 FEW080 FEW250 QNH2995INS BECMG 0720/0722 16008KT 9999 FEW080 SCT250 QNH2998INS BECMG 0802/0804 34013G20KT 9999 SCT250 QNH3002INS AUTOMATED SENSOR METWATCH 0707 TIL 0708 T13/0710Z T24/0720Z COR 0815 FN00253
NOTAMs
Click for the latest NOTAMs
NOTAMs are issued by the DoD/FAA and will open in a separate window not controlled by AirNav.

 

 
 

Would you like to see your business listed on this page?

 If your business provides an interesting product or service to pilots, flight crews, aircraft, or users of the Federhart-Ophelia Airport, you should consider listing it here.  To start the listing process, click on the button below
 
Add a business
 

Other Pages about Federhart-Ophelia Airport

Update a link
 
Copyright © AirNav, LLC. All rights reserved. Privacy Policy  Contact